sensor_id;sensor_type;location;lat;lon;timestamp;pressure;altitude;pressure_sealevel;temperature;humidity
25759;BME280;13604;52.496;13.456;2023-11-21T00:01:03;100380.28;;;6.40;100.00
25759;BME280;13604;52.496;13.456;2023-11-21T00:03:30;100364.63;;;6.22;100.00
25759;BME280;13604;52.496;13.456;2023-11-21T00:05:55;100381.22;;;6.26;100.00
25759;BME280;13604;52.496;13.456;2023-11-21T00:08:21;100387.91;;;6.22;100.00
25759;BME280;13604;52.496;13.456;2023-11-21T00:10:46;100381.41;;;6.14;100.00
25759;BME280;13604;52.496;13.456;2023-11-21T00:13:11;100365.13;;;6.00;100.00
25759;BME280;13604;52.496;13.456;2023-11-21T00:15:37;100388.72;;;6.06;100.00
25759;BME280;13604;52.496;13.456;2023-11-21T00:18:03;100399.88;;;6.05;100.00
25759;BME280;13604;52.496;13.456;2023-11-21T00:20:28;100395.66;;;5.93;100.00
25759;BME280;13604;52.496;13.456;2023-11-21T00:22:53;100408.41;;;5.89;100.00
25759;BME280;13604;52.496;13.456;2023-11-21T00:25:19;100404.66;;;5.84;100.00
25759;BME280;13604;52.496;13.456;2023-11-21T00:27:45;100403.84;;;5.85;100.00
25759;BME280;13604;52.496;13.456;2023-11-21T00:30:11;100402.84;;;5.83;100.00
25759;BME280;13604;52.496;13.456;2023-11-21T00:32:37;100411.34;;;5.81;100.00
25759;BME280;13604;52.496;13.456;2023-11-21T00:35:03;100414.44;;;5.75;100.00
25759;BME280;13604;52.496;13.456;2023-11-21T00:37:28;100420.06;;;5.68;100.00
25759;BME280;13604;52.496;13.456;2023-11-21T00:39:54;100401.84;;;5.51;100.00
25759;BME280;13604;52.496;13.456;2023-11-21T00:42:19;100407.22;;;5.55;100.00
25759;BME280;13604;52.496;13.456;2023-11-21T00:44:44;100423.88;;;5.60;100.00
25759;BME280;13604;52.496;13.456;2023-11-21T00:47:09;100433.47;;;5.62;100.00
25759;BME280;13604;52.496;13.456;2023-11-21T00:49:35;100434.22;;;5.60;100.00
25759;BME280;13604;52.496;13.456;2023-11-21T00:52:00;100430.56;;;5.56;100.00
25759;BME280;13604;52.496;13.456;2023-11-21T00:54:27;100416.78;;;5.42;100.00
25759;BME280;13604;52.496;13.456;2023-11-21T00:56:52;100432.19;;;5.41;100.00
25759;BME280;13604;52.496;13.456;2023-11-21T00:59:17;100441.63;;;5.40;100.00
25759;BME280;13604;52.496;13.456;2023-11-21T01:01:43;100441.97;;;5.31;100.00
25759;BME280;13604;52.496;13.456;2023-11-21T01:04:08;100449.16;;;5.22;100.00
25759;BME280;13604;52.496;13.456;2023-11-21T01:06:33;100451.16;;;5.13;100.00
25759;BME280;13604;52.496;13.456;2023-11-21T01:08:58;100445.81;;;5.10;100.00
25759;BME280;13604;52.496;13.456;2023-11-21T01:11:24;100438.81;;;4.94;100.00
25759;BME280;13604;52.496;13.456;2023-11-21T01:13:49;100443.34;;;4.98;100.00
25759;BME280;13604;52.496;13.456;2023-11-21T01:16:14;100443.16;;;4.95;100.00
25759;BME280;13604;52.496;13.456;2023-11-21T01:18:40;100463.88;;;4.96;100.00
25759;BME280;13604;52.496;13.456;2023-11-21T01:21:05;100468.38;;;4.99;100.00
25759;BME280;13604;52.496;13.456;2023-11-21T01:23:31;100469.38;;;4.88;100.00
25759;BME280;13604;52.496;13.456;2023-11-21T01:25:56;100467.88;;;4.91;100.00
25759;BME280;13604;52.496;13.456;2023-11-21T01:28:22;100466.78;;;4.88;100.00
25759;BME280;13604;52.496;13.456;2023-11-21T01:30:48;100485.56;;;4.85;100.00
25759;BME280;13604;52.496;13.456;2023-11-21T01:33:14;100467.31;;;4.82;100.00
25759;BME280;13604;52.496;13.456;2023-11-21T01:35:40;100468.00;;;4.79;100.00
25759;BME280;13604;52.496;13.456;2023-11-21T01:38:06;100480.47;;;4.87;100.00
25759;BME280;13604;52.496;13.456;2023-11-21T01:40:33;100471.56;;;4.82;100.00
25759;BME280;13604;52.496;13.456;2023-11-21T01:42:58;100491.41;;;4.83;100.00
25759;BME280;13604;52.496;13.456;2023-11-21T01:45:23;100485.06;;;4.77;100.00
25759;BME280;13604;52.496;13.456;2023-11-21T01:47:50;100475.22;;;4.72;100.00
25759;BME280;13604;52.496;13.456;2023-11-21T01:50:16;100493.78;;;4.79;100.00
25759;BME280;13604;52.496;13.456;2023-11-21T01:52:44;100470.78;;;4.69;100.00
25759;BME280;13604;52.496;13.456;2023-11-21T01:55:10;100494.41;;;4.75;100.00
25759;BME280;13604;52.496;13.456;2023-11-21T01:57:36;100500.16;;;4.71;100.00
25759;BME280;13604;52.496;13.456;2023-11-21T02:00:05;100473.06;;;4.51;100.00
25759;BME280;13604;52.496;13.456;2023-11-21T02:02:46;100475.44;;;4.48;100.00
25759;BME280;13604;52.496;13.456;2023-11-21T02:05:13;100508.19;;;4.63;100.00
25759;BME280;13604;52.496;13.456;2023-11-21T02:07:40;100506.91;;;4.56;100.00
25759;BME280;13604;52.496;13.456;2023-11-21T02:10:07;100515.22;;;4.52;100.00
25759;BME280;13604;52.496;13.456;2023-11-21T02:12:33;100491.31;;;4.41;100.00
25759;BME280;13604;52.496;13.456;2023-11-21T02:14:58;100498.84;;;4.51;100.00
25759;BME280;13604;52.496;13.456;2023-11-21T02:17:23;100502.13;;;4.49;100.00
25759;BME280;13604;52.496;13.456;2023-11-21T02:19:49;100506.19;;;4.45;100.00
25759;BME280;13604;52.496;13.456;2023-11-21T02:22:17;100524.44;;;4.48;100.00
25759;BME280;13604;52.496;13.456;2023-11-21T02:24:42;100520.66;;;4.43;100.00
25759;BME280;13604;52.496;13.456;2023-11-21T02:27:07;100508.34;;;4.26;100.00
25759;BME280;13604;52.496;13.456;2023-11-21T02:29:33;100491.78;;;4.22;100.00
25759;BME280;13604;52.496;13.456;2023-11-21T02:31:58;100498.63;;;4.21;100.00
25759;BME280;13604;52.496;13.456;2023-11-21T02:34:24;100523.22;;;4.30;100.00
25759;BME280;13604;52.496;13.456;2023-11-21T02:36:50;100528.28;;;4.28;100.00
25759;BME280;13604;52.496;13.456;2023-11-21T02:39:15;100511.09;;;4.15;100.00
25759;BME280;13604;52.496;13.456;2023-11-21T02:41:41;100541.75;;;4.24;100.00
25759;BME280;13604;52.496;13.456;2023-11-21T02:44:07;100539.16;;;4.24;100.00
25759;BME280;13604;52.496;13.456;2023-11-21T02:46:33;100535.28;;;4.17;100.00
25759;BME280;13604;52.496;13.456;2023-11-21T02:49:02;100543.34;;;4.22;100.00
25759;BME280;13604;52.496;13.456;2023-11-21T02:51:28;100542.94;;;4.29;100.00
25759;BME280;13604;52.496;13.456;2023-11-21T02:53:53;100541.19;;;4.28;100.00
25759;BME280;13604;52.496;13.456;2023-11-21T02:56:19;100543.66;;;4.27;100.00
25759;BME280;13604;52.496;13.456;2023-11-21T02:58:45;100536.31;;;4.19;100.00
25759;BME280;13604;52.496;13.456;2023-11-21T03:01:10;100540.75;;;4.22;100.00
25759;BME280;13604;52.496;13.456;2023-11-21T03:03:37;100526.34;;;4.12;100.00
25759;BME280;13604;52.496;13.456;2023-11-21T03:06:06;100538.03;;;4.07;100.00
25759;BME280;13604;52.496;13.456;2023-11-21T03:08:31;100531.41;;;4.11;100.00
25759;BME280;13604;52.496;13.456;2023-11-21T03:10:57;100540.63;;;4.07;100.00
25759;BME280;13604;52.496;13.456;2023-11-21T03:13:22;100551.53;;;4.03;100.00
25759;BME280;13604;52.496;13.456;2023-11-21T03:15:48;100536.41;;;3.96;100.00
25759;BME280;13604;52.496;13.456;2023-11-21T03:18:13;100559.66;;;4.09;100.00
25759;BME280;13604;52.496;13.456;2023-11-21T03:20:38;100558.75;;;4.09;100.00
25759;BME280;13604;52.496;13.456;2023-11-21T03:23:04;100550.50;;;4.01;100.00
25759;BME280;13604;52.496;13.456;2023-11-21T03:25:30;100575.09;;;4.09;100.00
25759;BME280;13604;52.496;13.456;2023-11-21T03:27:56;100534.09;;;3.87;100.00
25759;BME280;13604;52.496;13.456;2023-11-21T03:30:21;100575.69;;;4.05;100.00
25759;BME280;13604;52.496;13.456;2023-11-21T03:32:47;100566.97;;;4.03;100.00
25759;BME280;13604;52.496;13.456;2023-11-21T03:35:12;100554.13;;;3.91;100.00
25759;BME280;13604;52.496;13.456;2023-11-21T03:37:37;100585.09;;;4.04;100.00
25759;BME280;13604;52.496;13.456;2023-11-21T03:40:06;100553.03;;;3.87;100.00
25759;BME280;13604;52.496;13.456;2023-11-21T03:42:33;100551.94;;;3.84;100.00
25759;BME280;13604;52.496;13.456;2023-11-21T03:44:58;100590.31;;;3.93;100.00
25759;BME280;13604;52.496;13.456;2023-11-21T03:47:23;100584.00;;;3.76;100.00
25759;BME280;13604;52.496;13.456;2023-11-21T03:49:49;100557.84;;;3.58;100.00
25759;BME280;13604;52.496;13.456;2023-11-21T03:52:15;100599.56;;;3.77;100.00
25759;BME280;13604;52.496;13.456;2023-11-21T03:54:40;100602.13;;;3.77;100.00
25759;BME280;13604;52.496;13.456;2023-11-21T03:57:05;100603.81;;;3.77;100.00
25759;BME280;13604;52.496;13.456;2023-11-21T03:59:31;100608.06;;;3.76;100.00
25759;BME280;13604;52.496;13.456;2023-11-21T04:01:56;100602.72;;;3.61;100.00
25759;BME280;13604;52.496;13.456;2023-11-21T04:04:22;100600.97;;;3.60;100.00
25759;BME280;13604;52.496;13.456;2023-11-21T04:06:47;100613.47;;;3.67;100.00
25759;BME280;13604;52.496;13.456;2023-11-21T04:09:12;100607.53;;;3.68;100.00
25759;BME280;13604;52.496;13.456;2023-11-21T04:11:38;100599.03;;;3.58;100.00
25759;BME280;13604;52.496;13.456;2023-11-21T04:14:03;100612.91;;;3.60;100.00
25759;BME280;13604;52.496;13.456;2023-11-21T04:16:28;100621.97;;;3.66;100.00
25759;BME280;13604;52.496;13.456;2023-11-21T04:18:54;100611.81;;;3.56;100.00
25759;BME280;13604;52.496;13.456;2023-11-21T04:21:19;100622.78;;;3.65;100.00
25759;BME280;13604;52.496;13.456;2023-11-21T04:23:44;100622.00;;;3.55;100.00
25759;BME280;13604;52.496;13.456;2023-11-21T04:26:09;100614.28;;;3.55;100.00
25759;BME280;13604;52.496;13.456;2023-11-21T04:28:35;100637.31;;;3.65;100.00
25759;BME280;13604;52.496;13.456;2023-11-21T04:31:00;100640.69;;;3.64;100.00
25759;BME280;13604;52.496;13.456;2023-11-21T04:33:25;100634.31;;;3.59;100.00
25759;BME280;13604;52.496;13.456;2023-11-21T04:35:51;100615.66;;;3.38;100.00
25759;BME280;13604;52.496;13.456;2023-11-21T04:38:16;100643.28;;;3.52;100.00
25759;BME280;13604;52.496;13.456;2023-11-21T04:40:41;100628.75;;;3.41;100.00
25759;BME280;13604;52.496;13.456;2023-11-21T04:43:07;100621.56;;;3.37;100.00
25759;BME280;13604;52.496;13.456;2023-11-21T04:45:32;100656.06;;;3.50;100.00
25759;BME280;13604;52.496;13.456;2023-11-21T04:47:57;100635.25;;;3.36;100.00
25759;BME280;13604;52.496;13.456;2023-11-21T04:50:23;100625.50;;;3.31;100.00
25759;BME280;13604;52.496;13.456;2023-11-21T04:52:48;100660.75;;;3.44;100.00
25759;BME280;13604;52.496;13.456;2023-11-21T04:55:13;100661.75;;;3.46;100.00
25759;BME280;13604;52.496;13.456;2023-11-21T04:57:40;100652.59;;;3.38;100.00
25759;BME280;13604;52.496;13.456;2023-11-21T05:00:07;100665.69;;;3.41;100.00
25759;BME280;13604;52.496;13.456;2023-11-21T05:02:32;100669.72;;;3.38;100.00
25759;BME280;13604;52.496;13.456;2023-11-21T05:04:59;100669.13;;;3.42;100.00
25759;BME280;13604;52.496;13.456;2023-11-21T05:07:24;100678.88;;;3.46;100.00
25759;BME280;13604;52.496;13.456;2023-11-21T05:09:53;100650.13;;;3.28;100.00
25759;BME280;13604;52.496;13.456;2023-11-21T05:12:19;100651.59;;;3.24;100.00
25759;BME280;13604;52.496;13.456;2023-11-21T05:14:44;100654.41;;;3.27;100.00
25759;BME280;13604;52.496;13.456;2023-11-21T05:17:09;100676.31;;;3.46;100.00
25759;BME280;13604;52.496;13.456;2023-11-21T05:19:35;100701.06;;;3.56;100.00
25759;BME280;13604;52.496;13.456;2023-11-21T05:22:00;100706.53;;;3.60;100.00
25759;BME280;13604;52.496;13.456;2023-11-21T05:24:26;100682.81;;;3.53;100.00
25759;BME280;13604;52.496;13.456;2023-11-21T05:26:51;100710.56;;;3.57;100.00
25759;BME280;13604;52.496;13.456;2023-11-21T05:29:16;100674.19;;;3.40;100.00
25759;BME280;13604;52.496;13.456;2023-11-21T05:31:42;100675.09;;;3.41;100.00
25759;BME280;13604;52.496;13.456;2023-11-21T05:34:07;100696.78;;;3.56;100.00
25759;BME280;13604;52.496;13.456;2023-11-21T05:36:32;100704.97;;;3.50;100.00
25759;BME280;13604;52.496;13.456;2023-11-21T05:38:58;100693.22;;;3.42;100.00
25759;BME280;13604;52.496;13.456;2023-11-21T05:41:24;100716.16;;;3.63;100.00
25759;BME280;13604;52.496;13.456;2023-11-21T05:43:49;100699.72;;;3.49;100.00
25759;BME280;13604;52.496;13.456;2023-11-21T05:46:14;100688.84;;;3.41;100.00
25759;BME280;13604;52.496;13.456;2023-11-21T05:48:40;100714.69;;;3.55;100.00
25759;BME280;13604;52.496;13.456;2023-11-21T05:51:06;100722.88;;;3.61;100.00
25759;BME280;13604;52.496;13.456;2023-11-21T05:53:31;100734.28;;;3.64;100.00
25759;BME280;13604;52.496;13.456;2023-11-21T05:55:56;100720.66;;;3.54;100.00
25759;BME280;13604;52.496;13.456;2023-11-21T05:58:22;100739.78;;;3.69;100.00
25759;BME280;13604;52.496;13.456;2023-11-21T06:00:48;100718.16;;;3.55;100.00
25759;BME280;13604;52.496;13.456;2023-11-21T06:03:13;100733.19;;;3.61;100.00
25759;BME280;13604;52.496;13.456;2023-11-21T06:05:38;100743.59;;;3.62;100.00
25759;BME280;13604;52.496;13.456;2023-11-21T06:08:03;100750.22;;;3.59;100.00
25759;BME280;13604;52.496;13.456;2023-11-21T06:10:29;100728.59;;;3.45;100.00
25759;BME280;13604;52.496;13.456;2023-11-21T06:12:54;100757.00;;;3.58;100.00
25759;BME280;13604;52.496;13.456;2023-11-21T06:15:20;100760.28;;;3.56;100.00
25759;BME280;13604;52.496;13.456;2023-11-21T06:17:47;100759.81;;;3.49;100.00
25759;BME280;13604;52.496;13.456;2023-11-21T06:20:17;100772.03;;;3.52;100.00
25759;BME280;13604;52.496;13.456;2023-11-21T06:22:44;100770.59;;;3.56;100.00
25759;BME280;13604;52.496;13.456;2023-11-21T06:25:11;100775.16;;;3.60;100.00
25759;BME280;13604;52.496;13.456;2023-11-21T06:27:39;100779.31;;;3.58;100.00
25759;BME280;13604;52.496;13.456;2023-11-21T06:30:06;100789.38;;;3.55;100.00
25759;BME280;13604;52.496;13.456;2023-11-21T06:32:32;100782.00;;;3.59;100.00
25759;BME280;13604;52.496;13.456;2023-11-21T06:34:58;100798.69;;;3.76;100.00
25759;BME280;13604;52.496;13.456;2023-11-21T06:37:26;100793.00;;;3.68;100.00
25759;BME280;13604;52.496;13.456;2023-11-21T06:39:51;100787.03;;;3.58;100.00
25759;BME280;13604;52.496;13.456;2023-11-21T06:42:17;100808.88;;;3.63;100.00
25759;BME280;13604;52.496;13.456;2023-11-21T06:44:44;100799.91;;;3.58;100.00
25759;BME280;13604;52.496;13.456;2023-11-21T06:47:09;100798.09;;;3.57;100.00
25759;BME280;13604;52.496;13.456;2023-11-21T06:49:35;100819.97;;;3.62;100.00
25759;BME280;13604;52.496;13.456;2023-11-21T06:52:01;100810.88;;;3.55;100.00
25759;BME280;13604;52.496;13.456;2023-11-21T06:54:28;100801.13;;;3.51;100.00
25759;BME280;13604;52.496;13.456;2023-11-21T06:56:54;100814.47;;;3.57;100.00
25759;BME280;13604;52.496;13.456;2023-11-21T06:59:19;100819.94;;;3.50;100.00
25759;BME280;13604;52.496;13.456;2023-11-21T07:01:44;100804.00;;;3.32;100.00
25759;BME280;13604;52.496;13.456;2023-11-21T07:04:11;100800.78;;;3.35;100.00
25759;BME280;13604;52.496;13.456;2023-11-21T07:06:36;100817.47;;;3.52;100.00
25759;BME280;13604;52.496;13.456;2023-11-21T07:09:02;100821.16;;;3.55;100.00
25759;BME280;13604;52.496;13.456;2023-11-21T07:11:28;100813.09;;;3.39;100.00
25759;BME280;13604;52.496;13.456;2023-11-21T07:13:53;100833.59;;;3.49;100.00
25759;BME280;13604;52.496;13.456;2023-11-21T07:16:19;100836.31;;;3.50;100.00
25759;BME280;13604;52.496;13.456;2023-11-21T07:18:44;100835.94;;;3.46;100.00
25759;BME280;13604;52.496;13.456;2023-11-21T07:21:10;100843.91;;;3.49;100.00
25759;BME280;13604;52.496;13.456;2023-11-21T07:23:37;100839.19;;;3.43;100.00
25759;BME280;13604;52.496;13.456;2023-11-21T07:26:02;100848.72;;;3.44;100.00
25759;BME280;13604;52.496;13.456;2023-11-21T07:28:29;100822.47;;;3.26;100.00
25759;BME280;13604;52.496;13.456;2023-11-21T07:30:55;100827.38;;;3.23;100.00
25759;BME280;13604;52.496;13.456;2023-11-21T07:33:20;100841.50;;;3.28;100.00
25759;BME280;13604;52.496;13.456;2023-11-21T07:35:46;100852.38;;;3.36;100.00
25759;BME280;13604;52.496;13.456;2023-11-21T07:38:11;100846.47;;;3.37;100.00
25759;BME280;13604;52.496;13.456;2023-11-21T07:40:37;100856.75;;;3.37;100.00
25759;BME280;13604;52.496;13.456;2023-11-21T07:43:02;100856.66;;;3.36;100.00
25759;BME280;13604;52.496;13.456;2023-11-21T07:45:27;100834.50;;;3.16;100.00
25759;BME280;13604;52.496;13.456;2023-11-21T07:47:55;100861.31;;;3.29;100.00
25759;BME280;13604;52.496;13.456;2023-11-21T07:50:22;100867.34;;;3.30;100.00
25759;BME280;13604;52.496;13.456;2023-11-21T07:52:48;100851.88;;;3.18;100.00
25759;BME280;13604;52.496;13.456;2023-11-21T07:55:15;100875.19;;;3.31;100.00
25759;BME280;13604;52.496;13.456;2023-11-21T07:57:40;100862.09;;;3.28;100.00
25759;BME280;13604;52.496;13.456;2023-11-21T08:00:06;100872.09;;;3.36;100.00
25759;BME280;13604;52.496;13.456;2023-11-21T08:02:34;100873.88;;;3.37;100.00
25759;BME280;13604;52.496;13.456;2023-11-21T08:04:59;100855.47;;;3.20;100.00
25759;BME280;13604;52.496;13.456;2023-11-21T08:07:25;100886.84;;;3.38;100.00
25759;BME280;13604;52.496;13.456;2023-11-21T08:09:51;100896.25;;;3.38;100.00
25759;BME280;13604;52.496;13.456;2023-11-21T08:12:16;100893.78;;;3.27;100.00
25759;BME280;13604;52.496;13.456;2023-11-21T08:14:42;100909.34;;;3.29;100.00
25759;BME280;13604;52.496;13.456;2023-11-21T08:17:09;100905.94;;;3.18;100.00
25759;BME280;13604;52.496;13.456;2023-11-21T08:19:35;100914.53;;;3.19;100.00
25759;BME280;13604;52.496;13.456;2023-11-21T08:22:01;100915.56;;;3.21;100.00
25759;BME280;13604;52.496;13.456;2023-11-21T08:24:26;100920.72;;;3.21;100.00
25759;BME280;13604;52.496;13.456;2023-11-21T08:26:52;100904.91;;;3.16;100.00
25759;BME280;13604;52.496;13.456;2023-11-21T08:29:19;100911.69;;;3.26;100.00
25759;BME280;13604;52.496;13.456;2023-11-21T08:31:44;100895.16;;;3.12;100.00
25759;BME280;13604;52.496;13.456;2023-11-21T08:34:12;100910.50;;;3.22;100.00
25759;BME280;13604;52.496;13.456;2023-11-21T08:36:43;100879.91;;;3.03;100.00
25759;BME280;13604;52.496;13.456;2023-11-21T08:39:09;100916.47;;;3.21;100.00
25759;BME280;13604;52.496;13.456;2023-11-21T08:41:35;100910.63;;;3.24;100.00
25759;BME280;13604;52.496;13.456;2023-11-21T08:44:02;100894.56;;;3.04;100.00
25759;BME280;13604;52.496;13.456;2023-11-21T08:46:27;100912.06;;;3.20;100.00
25759;BME280;13604;52.496;13.456;2023-11-21T08:48:53;100924.53;;;3.26;100.00
25759;BME280;13604;52.496;13.456;2023-11-21T08:51:18;100923.88;;;3.28;100.00
25759;BME280;13604;52.496;13.456;2023-11-21T08:53:43;100936.72;;;3.28;100.00
25759;BME280;13604;52.496;13.456;2023-11-21T08:56:13;100938.22;;;3.37;100.00
25759;BME280;13604;52.496;13.456;2023-11-21T08:58:39;100940.31;;;3.30;100.00
25759;BME280;13604;52.496;13.456;2023-11-21T09:01:04;100943.28;;;3.47;100.00
25759;BME280;13604;52.496;13.456;2023-11-21T09:03:31;100940.94;;;3.50;100.00
25759;BME280;13604;52.496;13.456;2023-11-21T09:05:59;100944.44;;;3.50;100.00
25759;BME280;13604;52.496;13.456;2023-11-21T09:08:24;100947.25;;;3.54;100.00
25759;BME280;13604;52.496;13.456;2023-11-21T09:10:50;100960.78;;;3.51;100.00
25759;BME280;13604;52.496;13.456;2023-11-21T09:13:15;100952.94;;;3.49;100.00
25759;BME280;13604;52.496;13.456;2023-11-21T09:15:42;100961.50;;;3.38;100.00
25759;BME280;13604;52.496;13.456;2023-11-21T09:18:08;100970.13;;;3.39;100.00
25759;BME280;13604;52.496;13.456;2023-11-21T09:20:35;100971.44;;;3.34;100.00
25759;BME280;13604;52.496;13.456;2023-11-21T09:23:00;100977.97;;;3.40;100.00
25759;BME280;13604;52.496;13.456;2023-11-21T09:25:26;100968.53;;;3.29;100.00
25759;BME280;13604;52.496;13.456;2023-11-21T09:27:51;100992.84;;;3.33;100.00
25759;BME280;13604;52.496;13.456;2023-11-21T09:30:16;100983.38;;;3.21;100.00
25759;BME280;13604;52.496;13.456;2023-11-21T09:32:42;100997.50;;;3.26;100.00
25759;BME280;13604;52.496;13.456;2023-11-21T09:35:10;100975.16;;;3.15;100.00
25759;BME280;13604;52.496;13.456;2023-11-21T09:37:36;100987.84;;;3.24;100.00
25759;BME280;13604;52.496;13.456;2023-11-21T09:40:04;101011.50;;;3.30;100.00
25759;BME280;13604;52.496;13.456;2023-11-21T09:42:35;101006.72;;;3.35;100.00
25759;BME280;13604;52.496;13.456;2023-11-21T09:45:18;101014.44;;;3.57;100.00
25759;BME280;13604;52.496;13.456;2023-11-21T09:47:46;101002.28;;;3.66;100.00
25759;BME280;13604;52.496;13.456;2023-11-21T09:50:16;100995.16;;;3.85;100.00
25759;BME280;13604;52.496;13.456;2023-11-21T09:55:36;101023.50;;;4.19;100.00
25759;BME280;13604;52.496;13.456;2023-11-21T09:58:04;101031.00;;;4.16;100.00
25759;BME280;13604;52.496;13.456;2023-11-21T10:00:33;101027.19;;;4.11;100.00
25759;BME280;13604;52.496;13.456;2023-11-21T10:02:58;101025.91;;;4.06;100.00
25759;BME280;13604;52.496;13.456;2023-11-21T10:05:24;101032.88;;;4.07;100.00
25759;BME280;13604;52.496;13.456;2023-11-21T10:07:50;101024.53;;;3.99;100.00
25759;BME280;13604;52.496;13.456;2023-11-21T10:10:18;101030.75;;;4.01;100.00
25759;BME280;13604;52.496;13.456;2023-11-21T10:12:47;101005.59;;;3.87;100.00
25759;BME280;13604;52.496;13.456;2023-11-21T10:15:14;101009.88;;;3.86;100.00
25759;BME280;13604;52.496;13.456;2023-11-21T10:17:43;101003.50;;;3.71;100.00
25759;BME280;13604;52.496;13.456;2023-11-21T10:20:13;101021.44;;;3.69;100.00
25759;BME280;13604;52.496;13.456;2023-11-21T10:22:40;101029.97;;;3.68;100.00
25759;BME280;13604;52.496;13.456;2023-11-21T10:25:09;101042.28;;;3.73;100.00
25759;BME280;13604;52.496;13.456;2023-11-21T10:27:36;101029.50;;;3.74;100.00
25759;BME280;13604;52.496;13.456;2023-11-21T10:30:03;101025.69;;;3.47;100.00
25759;BME280;13604;52.496;13.456;2023-11-21T10:32:31;101028.63;;;3.52;100.00
25759;BME280;13604;52.496;13.456;2023-11-21T10:34:58;101040.78;;;3.64;100.00
25759;BME280;13604;52.496;13.456;2023-11-21T10:37:25;101044.25;;;3.65;100.00
25759;BME280;13604;52.496;13.456;2023-11-21T10:39:57;101039.50;;;3.81;100.00
25759;BME280;13604;52.496;13.456;2023-11-21T10:42:23;101034.19;;;3.90;100.00
25759;BME280;13604;52.496;13.456;2023-11-21T10:44:49;101043.50;;;4.00;100.00
25759;BME280;13604;52.496;13.456;2023-11-21T10:47:14;101062.97;;;3.96;100.00
25759;BME280;13604;52.496;13.456;2023-11-21T10:49:40;101046.81;;;3.87;100.00
25759;BME280;13604;52.496;13.456;2023-11-21T10:52:05;101045.97;;;3.76;100.00
25759;BME280;13604;52.496;13.456;2023-11-21T10:54:31;101070.09;;;3.77;100.00
25759;BME280;13604;52.496;13.456;2023-11-21T10:56:58;101061.06;;;3.72;100.00
25759;BME280;13604;52.496;13.456;2023-11-21T10:59:28;101061.44;;;3.76;100.00
25759;BME280;13604;52.496;13.456;2023-11-21T11:01:59;101065.69;;;3.76;100.00
25759;BME280;13604;52.496;13.456;2023-11-21T11:04:28;101060.56;;;3.76;100.00
25759;BME280;13604;52.496;13.456;2023-11-21T11:06:57;101070.53;;;3.83;100.00
25759;BME280;13604;52.496;13.456;2023-11-21T11:09:24;101069.41;;;3.79;100.00
25759;BME280;13604;52.496;13.456;2023-11-21T11:11:51;101066.31;;;3.83;100.00
25759;BME280;13604;52.496;13.456;2023-11-21T11:14:17;101067.06;;;3.82;100.00
25759;BME280;13604;52.496;13.456;2023-11-21T11:16:44;101061.19;;;3.73;100.00
25759;BME280;13604;52.496;13.456;2023-11-21T11:19:10;101055.50;;;3.55;100.00
25759;BME280;13604;52.496;13.456;2023-11-21T11:27:54;101073.84;;;3.48;100.00
25759;BME280;13604;52.496;13.456;2023-11-21T11:30:33;101071.47;;;3.39;100.00
25759;BME280;13604;52.496;13.456;2023-11-21T11:33:20;101084.31;;;3.39;100.00
25759;BME280;13604;52.496;13.456;2023-11-21T11:36:13;101097.69;;;3.45;100.00
25759;BME280;13604;52.496;13.456;2023-11-21T11:38:45;101110.63;;;3.25;100.00
25759;BME280;13604;52.496;13.456;2023-11-21T11:41:11;101104.88;;;3.17;100.00
25759;BME280;13604;52.496;13.456;2023-11-21T11:43:37;101084.63;;;2.89;100.00
25759;BME280;13604;52.496;13.456;2023-11-21T11:46:10;101119.72;;;2.99;100.00
25759;BME280;13604;52.496;13.456;2023-11-21T11:48:38;101125.78;;;3.00;100.00
25759;BME280;13604;52.496;13.456;2023-11-21T11:51:12;101121.53;;;3.00;100.00
25759;BME280;13604;52.496;13.456;2023-11-21T11:53:47;101133.88;;;3.04;100.00
25759;BME280;13604;52.496;13.456;2023-11-21T11:58:45;101116.13;;;2.97;100.00
25759;BME280;13604;52.496;13.456;2023-11-21T12:01:11;101124.88;;;2.99;100.00
25759;BME280;13604;52.496;13.456;2023-11-21T12:03:37;101112.44;;;2.83;100.00
25759;BME280;13604;52.496;13.456;2023-11-21T12:06:02;101142.88;;;2.99;100.00
25759;BME280;13604;52.496;13.456;2023-11-21T12:08:28;101137.38;;;2.84;100.00
25759;BME280;13604;52.496;13.456;2023-11-21T12:10:56;101147.28;;;2.90;100.00
25759;BME280;13604;52.496;13.456;2023-11-21T12:13:22;101146.00;;;2.85;100.00
25759;BME280;13604;52.496;13.456;2023-11-21T12:15:48;101150.22;;;2.84;100.00
25759;BME280;13604;52.496;13.456;2023-11-21T12:18:14;101165.56;;;2.93;100.00
25759;BME280;13604;52.496;13.456;2023-11-21T12:20:39;101164.25;;;2.98;100.00
25759;BME280;13604;52.496;13.456;2023-11-21T12:23:06;101157.84;;;2.93;100.00
25759;BME280;13604;52.496;13.456;2023-11-21T12:25:32;101169.28;;;2.97;100.00
25759;BME280;13604;52.496;13.456;2023-11-21T12:27:59;101177.88;;;2.97;100.00
25759;BME280;13604;52.496;13.456;2023-11-21T12:30:26;101179.16;;;3.02;100.00
25759;BME280;13604;52.496;13.456;2023-11-21T12:32:55;101179.69;;;2.98;100.00
25759;BME280;13604;52.496;13.456;2023-11-21T12:35:23;101182.63;;;2.92;100.00
25759;BME280;13604;52.496;13.456;2023-11-21T12:37:49;101167.09;;;2.81;100.00
25759;BME280;13604;52.496;13.456;2023-11-21T12:40:15;101163.78;;;2.71;100.00
25759;BME280;13604;52.496;13.456;2023-11-21T12:42:42;101184.84;;;2.78;100.00
25759;BME280;13604;52.496;13.456;2023-11-21T12:45:18;101199.91;;;2.83;100.00
25759;BME280;13604;52.496;13.456;2023-11-21T12:47:45;101173.41;;;2.64;100.00